sensor_id;sensor_type;location;lat;lon;timestamp;pressure;altitude;pressure_sealevel;temperature;humidity
35848;BME280;22332;51.954;20.118;2023-03-21T00:00:17;100057.54;;;9.52;81.84
35848;BME280;22332;51.954;20.118;2023-03-21T00:03:43;100054.89;;;9.49;81.85
35848;BME280;22332;51.954;20.118;2023-03-21T00:06:50;100054.44;;;9.51;81.95
35848;BME280;22332;51.954;20.118;2023-03-21T00:09:55;100050.71;;;9.51;82.06
35848;BME280;22332;51.954;20.118;2023-03-21T00:13:01;100051.28;;;9.45;82.25
35848;BME280;22332;51.954;20.118;2023-03-21T00:16:08;100049.25;;;9.41;82.22
35848;BME280;22332;51.954;20.118;2023-03-21T00:19:18;100046.94;;;9.43;82.27
35848;BME280;22332;51.954;20.118;2023-03-21T00:22:25;100043.06;;;9.45;82.36
35848;BME280;22332;51.954;20.118;2023-03-21T00:25:30;100039.70;;;9.45;82.36
35848;BME280;22332;51.954;20.118;2023-03-21T00:28:36;100038.77;;;9.46;82.55
35848;BME280;22332;51.954;20.118;2023-03-21T00:31:42;100040.48;;;9.37;82.49
35848;BME280;22332;51.954;20.118;2023-03-21T00:34:48;100039.14;;;9.27;83.19
35848;BME280;22332;51.954;20.118;2023-03-21T00:37:55;100037.30;;;9.22;82.77
35848;BME280;22332;51.954;20.118;2023-03-21T00:41:02;100032.62;;;9.23;82.84
35848;BME280;22332;51.954;20.118;2023-03-21T00:44:08;100028.01;;;9.24;82.65
35848;BME280;22332;51.954;20.118;2023-03-21T00:47:14;100033.59;;;9.28;82.85
35848;BME280;22332;51.954;20.118;2023-03-21T00:50:20;100027.73;;;9.28;82.75
35848;BME280;22332;51.954;20.118;2023-03-21T00:53:26;100025.30;;;9.23;83.03
35848;BME280;22332;51.954;20.118;2023-03-21T00:56:31;100019.70;;;9.19;82.83
35848;BME280;22332;51.954;20.118;2023-03-21T00:59:37;100021.45;;;9.13;83.58
35848;BME280;22332;51.954;20.118;2023-03-21T01:02:42;100014.37;;;9.08;83.14
35848;BME280;22332;51.954;20.118;2023-03-21T01:05:59;100009.39;;;9.08;83.17
35848;BME280;22332;51.954;20.118;2023-03-21T01:09:13;100010.23;;;9.10;83.12
35848;BME280;22332;51.954;20.118;2023-03-21T01:12:18;100016.84;;;9.08;83.00
35848;BME280;22332;51.954;20.118;2023-03-21T01:15:24;100018.73;;;9.05;83.00
35848;BME280;22332;51.954;20.118;2023-03-21T01:18:30;100022.36;;;9.04;83.06
35848;BME280;22332;51.954;20.118;2023-03-21T01:21:36;100023.56;;;9.04;83.06
35848;BME280;22332;51.954;20.118;2023-03-21T01:24:41;100020.54;;;9.05;83.27
35848;BME280;22332;51.954;20.118;2023-03-21T01:27:47;100019.92;;;9.08;83.14
35848;BME280;22332;51.954;20.118;2023-03-21T01:30:53;100010.27;;;9.08;82.98
35848;BME280;22332;51.954;20.118;2023-03-21T01:33:58;100008.77;;;9.09;82.80
35848;BME280;22332;51.954;20.118;2023-03-21T01:37:04;100011.45;;;9.05;83.15
35848;BME280;22332;51.954;20.118;2023-03-21T01:40:18;100013.08;;;8.99;83.01
35848;BME280;22332;51.954;20.118;2023-03-21T01:43:29;100008.71;;;8.96;83.17
35848;BME280;22332;51.954;20.118;2023-03-21T01:46:39;100004.27;;;8.95;82.99
35848;BME280;22332;51.954;20.118;2023-03-21T01:50:09;100004.13;;;8.98;82.98
35848;BME280;22332;51.954;20.118;2023-03-21T01:53:21;100004.20;;;8.99;82.93
35848;BME280;22332;51.954;20.118;2023-03-21T01:56:33;100000.91;;;9.00;82.91
35848;BME280;22332;51.954;20.118;2023-03-21T01:59:47;99999.48;;;9.00;82.85
35848;BME280;22332;51.954;20.118;2023-03-21T02:03:14;99998.96;;;8.98;82.98
35848;BME280;22332;51.954;20.118;2023-03-21T02:06:42;99994.20;;;8.96;83.05
35848;BME280;22332;51.954;20.118;2023-03-21T02:10:07;99989.10;;;8.97;82.97
35848;BME280;22332;51.954;20.118;2023-03-21T02:13:14;99994.90;;;9.00;83.13
35848;BME280;22332;51.954;20.118;2023-03-21T02:16:30;99998.69;;;9.03;82.92
35848;BME280;22332;51.954;20.118;2023-03-21T02:24:10;99999.63;;;9.01;83.06
35848;BME280;22332;51.954;20.118;2023-03-21T02:27:23;99996.56;;;8.97;83.01
35848;BME280;22332;51.954;20.118;2023-03-21T02:30:54;99992.60;;;8.95;83.10
35848;BME280;22332;51.954;20.118;2023-03-21T02:34:37;99990.52;;;8.94;83.23
35848;BME280;22332;51.954;20.118;2023-03-21T02:37:52;99983.21;;;8.96;83.08
35848;BME280;22332;51.954;20.118;2023-03-21T02:41:05;99988.61;;;8.99;83.18
35848;BME280;22332;51.954;20.118;2023-03-21T02:44:18;99988.45;;;9.01;83.00
35848;BME280;22332;51.954;20.118;2023-03-21T02:47:26;99991.80;;;8.99;82.99
35848;BME280;22332;51.954;20.118;2023-03-21T02:50:37;99988.16;;;8.96;83.04
35848;BME280;22332;51.954;20.118;2023-03-21T02:53:49;99991.32;;;8.93;83.06
35848;BME280;22332;51.954;20.118;2023-03-21T02:56:58;99993.75;;;8.92;83.07
35848;BME280;22332;51.954;20.118;2023-03-21T03:00:10;99995.59;;;8.91;83.16
35848;BME280;22332;51.954;20.118;2023-03-21T03:03:18;99996.27;;;8.91;83.03
35848;BME280;22332;51.954;20.118;2023-03-21T03:06:27;99996.80;;;8.93;83.22
35848;BME280;22332;51.954;20.118;2023-03-21T03:09:44;100000.48;;;8.94;82.99
35848;BME280;22332;51.954;20.118;2023-03-21T03:13:02;100003.73;;;8.95;83.15
35848;BME280;22332;51.954;20.118;2023-03-21T03:16:21;100006.75;;;8.91;83.22
35848;BME280;22332;51.954;20.118;2023-03-21T03:19:42;100010.23;;;8.89;83.17
35848;BME280;22332;51.954;20.118;2023-03-21T03:22:57;100010.39;;;8.89;83.48
35848;BME280;22332;51.954;20.118;2023-03-21T03:26:06;100009.78;;;8.93;83.50
35848;BME280;22332;51.954;20.118;2023-03-21T03:29:15;100011.19;;;8.97;83.32
35848;BME280;22332;51.954;20.118;2023-03-21T03:32:25;100008.84;;;8.97;83.35
35848;BME280;22332;51.954;20.118;2023-03-21T03:35:34;100005.63;;;8.96;83.48
35848;BME280;22332;51.954;20.118;2023-03-21T03:38:41;100007.05;;;8.95;83.26
35848;BME280;22332;51.954;20.118;2023-03-21T03:41:50;100009.45;;;8.94;83.41
35848;BME280;22332;51.954;20.118;2023-03-21T03:44:59;100013.07;;;8.96;83.34
35848;BME280;22332;51.954;20.118;2023-03-21T03:48:10;100004.91;;;8.99;83.27
35848;BME280;22332;51.954;20.118;2023-03-21T03:51:24;100005.86;;;9.02;83.47
35848;BME280;22332;51.954;20.118;2023-03-21T03:54:57;99999.02;;;9.03;83.45
35848;BME280;22332;51.954;20.118;2023-03-21T03:58:03;99997.47;;;9.01;83.58
35848;BME280;22332;51.954;20.118;2023-03-21T04:01:09;100001.25;;;8.97;83.54
35848;BME280;22332;51.954;20.118;2023-03-21T04:04:15;100000.79;;;8.98;83.59
35848;BME280;22332;51.954;20.118;2023-03-21T04:07:21;99992.58;;;8.98;83.49
35848;BME280;22332;51.954;20.118;2023-03-21T04:10:29;99995.62;;;9.00;83.79
35848;BME280;22332;51.954;20.118;2023-03-21T04:13:35;99991.75;;;9.01;83.52
35848;BME280;22332;51.954;20.118;2023-03-21T04:16:50;99995.08;;;9.02;83.61
35848;BME280;22332;51.954;20.118;2023-03-21T04:19:55;99992.22;;;9.02;83.70
35848;BME280;22332;51.954;20.118;2023-03-21T04:23:01;99992.32;;;9.03;83.72
35848;BME280;22332;51.954;20.118;2023-03-21T04:26:07;99995.86;;;9.01;83.67
35848;BME280;22332;51.954;20.118;2023-03-21T04:29:17;99997.27;;;8.98;83.62
35848;BME280;22332;51.954;20.118;2023-03-21T04:32:49;99998.95;;;9.00;83.89
35848;BME280;22332;51.954;20.118;2023-03-21T04:35:57;99997.70;;;9.04;83.66
35848;BME280;22332;51.954;20.118;2023-03-21T04:39:05;99997.23;;;9.07;83.58
35848;BME280;22332;51.954;20.118;2023-03-21T04:42:16;100001.20;;;9.09;83.65
35848;BME280;22332;51.954;20.118;2023-03-21T04:45:22;100002.30;;;9.08;83.79
35848;BME280;22332;51.954;20.118;2023-03-21T04:48:28;100004.13;;;9.08;83.64
35848;BME280;22332;51.954;20.118;2023-03-21T04:51:34;100004.00;;;9.07;83.83
35848;BME280;22332;51.954;20.118;2023-03-21T04:54:42;100010.79;;;9.09;83.60
35848;BME280;22332;51.954;20.118;2023-03-21T04:57:47;100004.48;;;9.11;83.67
35848;BME280;22332;51.954;20.118;2023-03-21T05:00:53;100005.05;;;9.14;83.84
35848;BME280;22332;51.954;20.118;2023-03-21T05:04:01;100010.41;;;9.18;83.67
35848;BME280;22332;51.954;20.118;2023-03-21T05:07:08;100013.91;;;9.16;83.61
35848;BME280;22332;51.954;20.118;2023-03-21T05:10:14;100017.13;;;9.13;83.83
35848;BME280;22332;51.954;20.118;2023-03-21T05:13:21;100015.13;;;9.04;84.05
35848;BME280;22332;51.954;20.118;2023-03-21T05:16:27;100012.67;;;9.01;84.13
35848;BME280;22332;51.954;20.118;2023-03-21T05:19:34;100019.75;;;8.98;84.36
35848;BME280;22332;51.954;20.118;2023-03-21T05:22:40;100017.08;;;8.96;84.26
35848;BME280;22332;51.954;20.118;2023-03-21T05:25:49;100019.39;;;9.04;84.45
35848;BME280;22332;51.954;20.118;2023-03-21T05:29:19;100013.84;;;9.10;84.28
35848;BME280;22332;51.954;20.118;2023-03-21T05:32:31;100020.98;;;9.10;84.48
35848;BME280;22332;51.954;20.118;2023-03-21T05:35:38;100021.84;;;9.10;84.35
35848;BME280;22332;51.954;20.118;2023-03-21T05:38:45;100028.98;;;9.11;84.53
35848;BME280;22332;51.954;20.118;2023-03-21T05:41:51;100023.63;;;9.06;84.60
35848;BME280;22332;51.954;20.118;2023-03-21T05:44:57;100031.13;;;9.03;84.84
35848;BME280;22332;51.954;20.118;2023-03-21T05:48:06;100031.44;;;8.98;84.73
35848;BME280;22332;51.954;20.118;2023-03-21T05:51:23;100034.23;;;8.99;84.88
35848;BME280;22332;51.954;20.118;2023-03-21T05:54:29;100034.33;;;8.96;84.86
35848;BME280;22332;51.954;20.118;2023-03-21T05:57:36;100039.30;;;8.90;84.93
35848;BME280;22332;51.954;20.118;2023-03-21T06:00:46;100039.59;;;8.82;85.38
35848;BME280;22332;51.954;20.118;2023-03-21T06:03:57;100044.48;;;8.79;85.28
35848;BME280;22332;51.954;20.118;2023-03-21T06:07:05;100038.90;;;8.81;85.19
35848;BME280;22332;51.954;20.118;2023-03-21T06:10:12;100042.02;;;8.90;85.03
35848;BME280;22332;51.954;20.118;2023-03-21T06:13:19;100045.36;;;8.92;85.23
35848;BME280;22332;51.954;20.118;2023-03-21T06:16:25;100045.40;;;8.84;85.48
35848;BME280;22332;51.954;20.118;2023-03-21T06:19:32;100050.39;;;8.82;85.34
35848;BME280;22332;51.954;20.118;2023-03-21T06:22:42;100052.71;;;8.84;85.54
35848;BME280;22332;51.954;20.118;2023-03-21T06:25:49;100051.05;;;8.84;86.01
35848;BME280;22332;51.954;20.118;2023-03-21T06:28:55;100057.58;;;8.90;85.65
35848;BME280;22332;51.954;20.118;2023-03-21T06:32:00;100062.03;;;8.90;85.70
35848;BME280;22332;51.954;20.118;2023-03-21T06:35:08;100066.80;;;8.83;85.51
35848;BME280;22332;51.954;20.118;2023-03-21T06:38:14;100065.35;;;8.81;85.79
35848;BME280;22332;51.954;20.118;2023-03-21T06:41:19;100060.60;;;8.85;85.69
35848;BME280;22332;51.954;20.118;2023-03-21T06:44:35;100067.16;;;8.90;85.56
35848;BME280;22332;51.954;20.118;2023-03-21T06:47:44;100069.31;;;8.97;85.64
35848;BME280;22332;51.954;20.118;2023-03-21T06:51:05;100070.36;;;9.01;85.54
35848;BME280;22332;51.954;20.118;2023-03-21T06:54:12;100072.70;;;9.03;85.48
35848;BME280;22332;51.954;20.118;2023-03-21T06:57:35;100074.38;;;9.06;85.35
35848;BME280;22332;51.954;20.118;2023-03-21T07:00:41;100077.83;;;9.11;85.34
35848;BME280;22332;51.954;20.118;2023-03-21T07:03:48;100080.28;;;9.13;85.43
35848;BME280;22332;51.954;20.118;2023-03-21T07:06:56;100082.66;;;9.12;85.41
35848;BME280;22332;51.954;20.118;2023-03-21T07:10:04;100083.27;;;9.13;85.45
35848;BME280;22332;51.954;20.118;2023-03-21T07:13:17;100085.33;;;9.15;85.64
35848;BME280;22332;51.954;20.118;2023-03-21T07:16:29;100086.89;;;9.01;85.34
35848;BME280;22332;51.954;20.118;2023-03-21T07:19:35;100091.94;;;8.91;85.43
35848;BME280;22332;51.954;20.118;2023-03-21T07:22:41;100090.96;;;8.90;85.70
35848;BME280;22332;51.954;20.118;2023-03-21T07:25:48;100086.86;;;8.86;86.00
35848;BME280;22332;51.954;20.118;2023-03-21T07:28:53;100087.06;;;8.79;86.16
35848;BME280;22332;51.954;20.118;2023-03-21T07:31:59;100089.92;;;8.78;86.02
35848;BME280;22332;51.954;20.118;2023-03-21T07:35:06;100089.63;;;8.76;86.24
35848;BME280;22332;51.954;20.118;2023-03-21T07:38:13;100090.84;;;8.73;85.92
35848;BME280;22332;51.954;20.118;2023-03-21T07:41:20;100092.58;;;8.69;86.03
35848;BME280;22332;51.954;20.118;2023-03-21T07:44:27;100095.66;;;8.71;86.35
35848;BME280;22332;51.954;20.118;2023-03-21T07:47:40;100093.55;;;8.67;86.40
35848;BME280;22332;51.954;20.118;2023-03-21T07:50:45;100096.01;;;8.67;86.33
35848;BME280;22332;51.954;20.118;2023-03-21T07:53:53;100094.17;;;8.69;86.54
35848;BME280;22332;51.954;20.118;2023-03-21T07:56:58;100095.00;;;8.72;86.40
35848;BME280;22332;51.954;20.118;2023-03-21T08:00:05;100096.27;;;8.81;86.28
35848;BME280;22332;51.954;20.118;2023-03-21T08:03:17;100101.52;;;8.89;86.13
35848;BME280;22332;51.954;20.118;2023-03-21T08:06:23;100103.64;;;9.00;86.04
35848;BME280;22332;51.954;20.118;2023-03-21T08:09:31;100106.46;;;9.02;85.97
35848;BME280;22332;51.954;20.118;2023-03-21T08:12:36;100107.70;;;9.04;85.84
35848;BME280;22332;51.954;20.118;2023-03-21T08:15:42;100108.65;;;9.09;86.04
35848;BME280;22332;51.954;20.118;2023-03-21T08:18:47;100109.57;;;9.05;85.92
35848;BME280;22332;51.954;20.118;2023-03-21T08:21:53;100114.77;;;8.99;86.10
35848;BME280;22332;51.954;20.118;2023-03-21T08:24:59;100111.24;;;8.98;86.08
35848;BME280;22332;51.954;20.118;2023-03-21T08:28:04;100112.01;;;8.96;85.95
35848;BME280;22332;51.954;20.118;2023-03-21T08:31:11;100113.35;;;8.99;86.28
35848;BME280;22332;51.954;20.118;2023-03-21T08:34:17;100116.58;;;8.95;86.15
35848;BME280;22332;51.954;20.118;2023-03-21T08:37:23;100120.09;;;8.88;86.39
35848;BME280;22332;51.954;20.118;2023-03-21T08:40:28;100129.30;;;8.77;87.03
35848;BME280;22332;51.954;20.118;2023-03-21T08:43:35;100132.39;;;8.62;87.16
35848;BME280;22332;51.954;20.118;2023-03-21T08:46:40;100137.43;;;8.58;87.38
35848;BME280;22332;51.954;20.118;2023-03-21T08:49:46;100141.02;;;8.59;87.53
35848;BME280;22332;51.954;20.118;2023-03-21T08:52:51;100142.45;;;8.61;87.29
35848;BME280;22332;51.954;20.118;2023-03-21T08:55:57;100141.42;;;8.64;87.62
35848;BME280;22332;51.954;20.118;2023-03-21T08:59:02;100140.58;;;8.66;87.67
35848;BME280;22332;51.954;20.118;2023-03-21T09:02:08;100142.98;;;8.71;87.57
35848;BME280;22332;51.954;20.118;2023-03-21T09:05:14;100139.54;;;8.85;87.76
35848;BME280;22332;51.954;20.118;2023-03-21T09:08:20;100142.55;;;9.07;87.58
35848;BME280;22332;51.954;20.118;2023-03-21T09:11:27;100146.15;;;9.25;87.36
35848;BME280;22332;51.954;20.118;2023-03-21T09:14:33;100140.23;;;9.32;87.46
35848;BME280;22332;51.954;20.118;2023-03-21T09:17:39;100144.05;;;9.29;87.20
35848;BME280;22332;51.954;20.118;2023-03-21T09:20:47;100148.44;;;9.14;87.16
35848;BME280;22332;51.954;20.118;2023-03-21T09:23:54;100154.29;;;8.90;87.49
35848;BME280;22332;51.954;20.118;2023-03-21T09:27:02;100154.46;;;8.82;87.61
35848;BME280;22332;51.954;20.118;2023-03-21T09:30:09;100164.41;;;8.79;87.45
35848;BME280;22332;51.954;20.118;2023-03-21T09:33:15;100163.48;;;8.79;87.46
35848;BME280;22332;51.954;20.118;2023-03-21T09:36:25;100169.62;;;8.91;87.65
35848;BME280;22332;51.954;20.118;2023-03-21T09:39:31;100167.56;;;9.06;87.67
35848;BME280;22332;51.954;20.118;2023-03-21T09:42:41;100169.09;;;9.21;87.21
35848;BME280;22332;51.954;20.118;2023-03-21T09:45:56;100169.46;;;9.34;86.65
35848;BME280;22332;51.954;20.118;2023-03-21T09:49:05;100173.99;;;9.46;86.19
35848;BME280;22332;51.954;20.118;2023-03-21T09:52:19;100169.63;;;9.56;86.33
35848;BME280;22332;51.954;20.118;2023-03-21T09:55:28;100170.86;;;9.71;86.06
35848;BME280;22332;51.954;20.118;2023-03-21T09:58:38;100166.65;;;9.89;86.08
35848;BME280;22332;51.954;20.118;2023-03-21T10:01:46;100169.20;;;10.03;85.68
35848;BME280;22332;51.954;20.118;2023-03-21T10:04:52;100172.93;;;10.13;85.00
35848;BME280;22332;51.954;20.118;2023-03-21T10:08:03;100172.16;;;10.10;84.33
35848;BME280;22332;51.954;20.118;2023-03-21T10:11:14;100173.71;;;10.02;85.14
35848;BME280;22332;51.954;20.118;2023-03-21T10:14:24;100171.48;;;10.03;85.46
35848;BME280;22332;51.954;20.118;2023-03-21T10:17:34;100171.35;;;10.08;85.25
35848;BME280;22332;51.954;20.118;2023-03-21T10:20:44;100171.18;;;10.09;84.89
35848;BME280;22332;51.954;20.118;2023-03-21T10:23:51;100170.92;;;10.12;84.66
35848;BME280;22332;51.954;20.118;2023-03-21T10:26:58;100166.73;;;10.24;84.96
35848;BME280;22332;51.954;20.118;2023-03-21T10:30:08;100173.83;;;10.46;84.84
35848;BME280;22332;51.954;20.118;2023-03-21T10:33:16;100170.80;;;10.62;83.94
35848;BME280;22332;51.954;20.118;2023-03-21T10:36:25;100172.96;;;10.81;84.43
35848;BME280;22332;51.954;20.118;2023-03-21T10:39:35;100173.75;;;10.94;84.07
35848;BME280;22332;51.954;20.118;2023-03-21T10:42:41;100180.98;;;10.88;82.92
35848;BME280;22332;51.954;20.118;2023-03-21T10:45:48;100179.31;;;10.78;82.89
35848;BME280;22332;51.954;20.118;2023-03-21T10:48:54;100177.40;;;10.76;82.78
35848;BME280;22332;51.954;20.118;2023-03-21T10:52:03;100175.42;;;10.79;82.92
35848;BME280;22332;51.954;20.118;2023-03-21T10:55:19;100178.83;;;10.84;82.23
35848;BME280;22332;51.954;20.118;2023-03-21T10:58:28;100178.92;;;10.75;81.38
35848;BME280;22332;51.954;20.118;2023-03-21T11:01:39;100180.77;;;10.56;81.82
35848;BME280;22332;51.954;20.118;2023-03-21T11:04:45;100188.66;;;10.40;80.60
35848;BME280;22332;51.954;20.118;2023-03-21T11:07:59;100190.66;;;10.17;79.77
35848;BME280;22332;51.954;20.118;2023-03-21T11:11:08;100185.05;;;10.06;79.81
35848;BME280;22332;51.954;20.118;2023-03-21T11:14:26;100181.08;;;10.12;80.58
35848;BME280;22332;51.954;20.118;2023-03-21T11:17:35;100184.21;;;10.19;80.64
35848;BME280;22332;51.954;20.118;2023-03-21T11:20:48;100185.16;;;10.30;81.46
35848;BME280;22332;51.954;20.118;2023-03-21T11:23:55;100181.13;;;10.44;82.02
35848;BME280;22332;51.954;20.118;2023-03-21T11:27:06;100181.17;;;10.57;80.76
35848;BME280;22332;51.954;20.118;2023-03-21T11:30:21;100180.13;;;10.65;81.61
35848;BME280;22332;51.954;20.118;2023-03-21T11:33:30;100179.66;;;10.79;82.22
35848;BME280;22332;51.954;20.118;2023-03-21T11:36:38;100184.08;;;10.77;80.83
35848;BME280;22332;51.954;20.118;2023-03-21T11:39:44;100179.00;;;10.61;80.74
35848;BME280;22332;51.954;20.118;2023-03-21T11:42:51;100174.83;;;10.52;80.29
35848;BME280;22332;51.954;20.118;2023-03-21T11:45:59;100173.92;;;10.40;78.97
35848;BME280;22332;51.954;20.118;2023-03-21T11:49:07;100170.42;;;10.24;80.21
35848;BME280;22332;51.954;20.118;2023-03-21T11:52:22;100173.31;;;10.18;79.68
35848;BME280;22332;51.954;20.118;2023-03-21T11:55:44;100174.22;;;10.13;79.24
35848;BME280;22332;51.954;20.118;2023-03-21T11:59:23;100173.07;;;10.10;80.25
35848;BME280;22332;51.954;20.118;2023-03-21T12:02:59;100170.38;;;10.09;80.18
35848;BME280;22332;51.954;20.118;2023-03-21T12:06:16;100172.21;;;10.15;80.15
35848;BME280;22332;51.954;20.118;2023-03-21T12:09:40;100167.27;;;10.24;80.34
35848;BME280;22332;51.954;20.118;2023-03-21T12:12:54;100170.01;;;10.38;79.65
35848;BME280;22332;51.954;20.118;2023-03-21T12:16:12;100162.11;;;10.51;79.51
35848;BME280;22332;51.954;20.118;2023-03-21T12:19:33;100165.24;;;10.57;79.04
35848;BME280;22332;51.954;20.118;2023-03-21T12:22:54;100166.02;;;10.56;79.63
35848;BME280;22332;51.954;20.118;2023-03-21T12:26:11;100164.93;;;10.67;79.63
35848;BME280;22332;51.954;20.118;2023-03-21T12:29:33;100153.16;;;11.01;80.51
35848;BME280;22332;51.954;20.118;2023-03-21T12:32:53;100145.99;;;11.39;79.49
35848;BME280;22332;51.954;20.118;2023-03-21T12:36:13;100152.79;;;11.42;77.77
35848;BME280;22332;51.954;20.118;2023-03-21T12:39:28;100149.96;;;11.36;78.36
35848;BME280;22332;51.954;20.118;2023-03-21T12:43:01;100142.05;;;11.44;78.44
35848;BME280;22332;51.954;20.118;2023-03-21T12:46:14;100141.20;;;11.57;78.07
35848;BME280;22332;51.954;20.118;2023-03-21T12:49:27;100141.91;;;11.43;74.93
35848;BME280;22332;51.954;20.118;2023-03-21T12:52:38;100145.77;;;11.10;76.28
35848;BME280;22332;51.954;20.118;2023-03-21T12:55:45;100156.14;;;10.80;78.50
35848;BME280;22332;51.954;20.118;2023-03-21T12:58:53;100157.52;;;10.33;80.91
35848;BME280;22332;51.954;20.118;2023-03-21T13:02:11;100149.57;;;10.02;82.37
35848;BME280;22332;51.954;20.118;2023-03-21T13:05:21;100149.98;;;9.89;83.32
35848;BME280;22332;51.954;20.118;2023-03-21T13:08:36;100145.02;;;9.97;83.73
35848;BME280;22332;51.954;20.118;2023-03-21T13:11:44;100143.66;;;10.13;84.16
35848;BME280;22332;51.954;20.118;2023-03-21T13:14:58;100141.81;;;10.22;83.30
35848;BME280;22332;51.954;20.118;2023-03-21T13:18:17;100143.73;;;10.37;83.59
35848;BME280;22332;51.954;20.118;2023-03-21T13:21:36;100142.36;;;10.37;81.84
35848;BME280;22332;51.954;20.118;2023-03-21T13:24:48;100143.70;;;10.34;81.91
35848;BME280;22332;51.954;20.118;2023-03-21T13:27:59;100142.39;;;10.36;81.20
35848;BME280;22332;51.954;20.118;2023-03-21T13:31:20;100138.53;;;10.38;80.58
35848;BME280;22332;51.954;20.118;2023-03-21T13:34:26;100136.90;;;10.47;80.44
35848;BME280;22332;51.954;20.118;2023-03-21T13:37:34;100136.67;;;10.56;79.54
35848;BME280;22332;51.954;20.118;2023-03-21T13:40:46;100129.70;;;10.56;79.46
35848;BME280;22332;51.954;20.118;2023-03-21T13:44:07;100132.40;;;10.65;80.08
35848;BME280;22332;51.954;20.118;2023-03-21T13:47:33;100127.00;;;10.73;79.86
35848;BME280;22332;51.954;20.118;2023-03-21T13:50:58;100126.45;;;10.83;79.80
35848;BME280;22332;51.954;20.118;2023-03-21T13:54:18;100127.42;;;10.75;76.96
35848;BME280;22332;51.954;20.118;2023-03-21T13:57:38;100127.95;;;10.72;78.49
35848;BME280;22332;51.954;20.118;2023-03-21T14:00:43;100129.48;;;10.80;78.39
35848;BME280;22332;51.954;20.118;2023-03-21T14:04:17;100127.11;;;10.89;78.54
35848;BME280;22332;51.954;20.118;2023-03-21T14:07:26;100129.24;;;10.89;77.19
35848;BME280;22332;51.954;20.118;2023-03-21T14:10:36;100126.96;;;11.01;78.27
35848;BME280;22332;51.954;20.118;2023-03-21T14:13:43;100127.24;;;11.09;77.63
35848;BME280;22332;51.954;20.118;2023-03-21T14:16:52;100124.95;;;11.18;77.21
35848;BME280;22332;51.954;20.118;2023-03-21T14:20:00;100121.86;;;11.33;78.18
35848;BME280;22332;51.954;20.118;2023-03-21T14:23:15;100121.71;;;11.48;78.41
35848;BME280;22332;51.954;20.118;2023-03-21T14:26:21;100119.95;;;11.64;77.83
35848;BME280;22332;51.954;20.118;2023-03-21T14:29:30;100117.67;;;11.75;76.23
35848;BME280;22332;51.954;20.118;2023-03-21T14:32:38;100120.09;;;11.65;74.47
35848;BME280;22332;51.954;20.118;2023-03-21T14:35:46;100123.22;;;11.57;75.70
35848;BME280;22332;51.954;20.118;2023-03-21T14:39:02;100118.08;;;11.54;75.63
35848;BME280;22332;51.954;20.118;2023-03-21T14:42:11;100113.63;;;11.57;75.88
35848;BME280;22332;51.954;20.118;2023-03-21T14:45:20;100108.26;;;11.59;75.54
35848;BME280;22332;51.954;20.118;2023-03-21T14:48:31;100110.23;;;11.50;74.84
35848;BME280;22332;51.954;20.118;2023-03-21T14:51:37;100112.23;;;11.28;72.45
35848;BME280;22332;51.954;20.118;2023-03-21T14:54:46;100112.77;;;11.11;73.55
35848;BME280;22332;51.954;20.118;2023-03-21T14:57:52;100107.34;;;11.03;74.22
35848;BME280;22332;51.954;20.118;2023-03-21T15:01:02;100104.70;;;10.97;73.95
35848;BME280;22332;51.954;20.118;2023-03-21T15:04:12;100102.46;;;10.88;74.53
35848;BME280;22332;51.954;20.118;2023-03-21T15:07:27;100106.66;;;10.84;74.18
35848;BME280;22332;51.954;20.118;2023-03-21T15:10:33;100102.31;;;10.76;74.35
35848;BME280;22332;51.954;20.118;2023-03-21T15:13:43;100100.72;;;10.67;74.16
35848;BME280;22332;51.954;20.118;2023-03-21T15:16:49;100103.93;;;10.60;74.19
35848;BME280;22332;51.954;20.118;2023-03-21T15:19:55;100101.68;;;10.55;74.56
35848;BME280;22332;51.954;20.118;2023-03-21T15:23:03;100104.05;;;10.51;74.57
35848;BME280;22332;51.954;20.118;2023-03-21T15:26:15;100104.66;;;10.44;74.42
35848;BME280;22332;51.954;20.118;2023-03-21T15:29:21;100102.67;;;10.35;74.12
35848;BME280;22332;51.954;20.118;2023-03-21T15:32:30;100102.81;;;10.29;74.56
35848;BME280;22332;51.954;20.118;2023-03-21T15:35:42;100102.33;;;10.28;74.87
35848;BME280;22332;51.954;20.118;2023-03-21T15:38:49;100100.23;;;10.33;75.30
35848;BME280;22332;51.954;20.118;2023-03-21T15:42:00;100105.73;;;10.38;75.33
35848;BME280;22332;51.954;20.118;2023-03-21T15:45:16;100102.51;;;10.41;74.62
35848;BME280;22332;51.954;20.118;2023-03-21T15:48:26;100103.20;;;10.46;75.15
35848;BME280;22332;51.954;20.118;2023-03-21T15:51:32;100101.95;;;10.45;74.22
35848;BME280;22332;51.954;20.118;2023-03-21T15:54:42;100098.67;;;10.40;74.55
35848;BME280;22332;51.954;20.118;2023-03-21T15:57:49;100093.29;;;10.37;74.68
35848;BME280;22332;51.954;20.118;2023-03-21T16:00:55;100091.59;;;10.33;75.01
35848;BME280;22332;51.954;20.118;2023-03-21T16:04:07;100090.95;;;10.28;74.89
35848;BME280;22332;51.954;20.118;2023-03-21T16:07:15;100090.05;;;10.19;75.27
35848;BME280;22332;51.954;20.118;2023-03-21T16:10:31;100087.27;;;10.12;74.79
35848;BME280;22332;51.954;20.118;2023-03-21T16:13:36;100084.93;;;10.04;75.27
35848;BME280;22332;51.954;20.118;2023-03-21T16:16:43;100089.84;;;10.00;75.09
35848;BME280;22332;51.954;20.118;2023-03-21T16:19:49;100086.32;;;9.91;75.44
35848;BME280;22332;51.954;20.118;2023-03-21T16:22:54;100086.11;;;9.82;75.46
35848;BME280;22332;51.954;20.118;2023-03-21T16:26:00;100088.70;;;9.74;75.22
35848;BME280;22332;51.954;20.118;2023-03-21T16:29:09;100084.33;;;9.70;75.27
35848;BME280;22332;51.954;20.118;2023-03-21T16:32:17;100087.38;;;9.66;75.21
35848;BME280;22332;51.954;20.118;2023-03-21T16:35:23;100087.21;;;9.62;75.21